createdAt,value
2023-10-26T00:02:10.368Z,99274.10
2023-10-26T00:04:56.874Z,99270.35
2023-10-26T00:07:43.433Z,99269.27
2023-10-26T00:10:29.951Z,99272.25
2023-10-26T00:13:16.826Z,99272.45
2023-10-26T00:16:04.593Z,99272.45
2023-10-26T00:18:51.375Z,99268.34
2023-10-26T00:21:37.924Z,99265.30
2023-10-26T00:24:24.349Z,99265.96
2023-10-26T00:27:11.026Z,99259.17
2023-10-26T00:29:57.777Z,99269.10
2023-10-26T00:32:44.462Z,99265.54
2023-10-26T00:35:31.207Z,99263.54
2023-10-26T00:38:17.773Z,99265.44
2023-10-26T00:41:04.766Z,99260.84
2023-10-26T00:43:51.356Z,99253.59
2023-10-26T00:46:37.925Z,99250.75
2023-10-26T00:49:24.493Z,99253.23
2023-10-26T00:52:11.945Z,99253.73
2023-10-26T00:54:58.958Z,99252.08
2023-10-26T00:57:45.905Z,99249.39
2023-10-26T01:00:35.876Z,99240.14
2023-10-26T01:03:24.743Z,99239.77
2023-10-26T01:06:11.374Z,99247.75
2023-10-26T01:08:58.137Z,99242.20
2023-10-26T01:11:45.794Z,99242.48
2023-10-26T01:14:32.933Z,99241.95
2023-10-26T01:17:19.703Z,99237.48
2023-10-26T01:20:07.661Z,99227.56
2023-10-26T01:22:53.900Z,99229.91
2023-10-26T01:25:40.905Z,99226.35
2023-10-26T01:28:27.766Z,99221.23
2023-10-26T01:31:18.046Z,99218.33
2023-10-26T01:34:05.052Z,99207.41
2023-10-26T01:36:52.025Z,99207.81
2023-10-26T01:39:39.873Z,99205.33
2023-10-26T01:42:26.333Z,99204.52
2023-10-26T01:45:12.907Z,99199.78
2023-10-26T01:48:01.357Z,99199.83
2023-10-26T01:50:47.594Z,99199.80
2023-10-26T01:53:34.271Z,99197.95
2023-10-26T01:56:21.032Z,99193.40
2023-10-26T01:59:08.082Z,99196.63
2023-10-26T02:01:54.607Z,99195.92
2023-10-26T02:04:41.250Z,99195.56
2023-10-26T02:07:27.637Z,99199.98
2023-10-26T02:10:15.920Z,99198.94
2023-10-26T02:13:02.381Z,99191.96
2023-10-26T02:15:49.295Z,99189.89
2023-10-26T02:18:36.118Z,99184.30
2023-10-26T02:21:22.548Z,99183.02
2023-10-26T02:24:09.651Z,99182.17
2023-10-26T02:26:55.998Z,99179.73
2023-10-26T02:29:42.312Z,99178.73
2023-10-26T02:32:29.003Z,99174.18
2023-10-26T02:35:16.510Z,99176.35
2023-10-26T02:38:03.603Z,99171.60
2023-10-26T02:40:50.150Z,99172.25
2023-10-26T02:43:36.892Z,99170.30
2023-10-26T02:46:24.884Z,99167.70
2023-10-26T02:49:11.351Z,99158.98
2023-10-26T02:51:58.751Z,99152.66
2023-10-26T02:54:46.784Z,99162.38
2023-10-26T02:57:33.644Z,99155.71
2023-10-26T03:00:20.752Z,99147.14
2023-10-26T03:03:07.576Z,99149.55
2023-10-26T03:05:54.915Z,99146.92
2023-10-26T03:08:41.320Z,99143.40
2023-10-26T03:11:28.797Z,99147.27
2023-10-26T03:14:16.104Z,99146.96
2023-10-26T03:17:03.298Z,99141.55
2023-10-26T03:19:49.780Z,99136.98
2023-10-26T03:22:36.173Z,99132.55
2023-10-26T03:25:22.865Z,99129.91
2023-10-26T03:28:10.452Z,99130.05
2023-10-26T03:30:57.779Z,99128.27
2023-10-26T03:33:44.946Z,99127.19
2023-10-26T03:36:31.738Z,99122.67
2023-10-26T03:39:18.384Z,99124.09
2023-10-26T03:42:05.334Z,99121.98
2023-10-26T03:44:51.891Z,99119.96
2023-10-26T03:47:38.226Z,99119.95
2023-10-26T03:50:25.024Z,99119.38
2023-10-26T03:53:11.506Z,99120.06
2023-10-26T03:55:58.026Z,99120.96
2023-10-26T03:58:44.399Z,99120.05
2023-10-26T04:01:31.011Z,99114.35
2023-10-26T04:04:17.646Z,99109.92
2023-10-26T04:07:04.376Z,99105.15
2023-10-26T04:09:50.539Z,99099.83
2023-10-26T04:12:37.162Z,99097.72
2023-10-26T04:15:23.952Z,99095.06
2023-10-26T04:18:10.928Z,99089.58
2023-10-26T04:20:57.971Z,99083.73
2023-10-26T04:23:45.064Z,99080.86
2023-10-26T04:26:32.044Z,99073.46
2023-10-26T04:29:18.350Z,99066.41
2023-10-26T04:32:05.754Z,99066.22
2023-10-26T04:34:52.257Z,99058.31
2023-10-26T04:37:38.886Z,99053.90
2023-10-26T04:40:25.489Z,99056.09
2023-10-26T04:43:12.059Z,99051.27
2023-10-26T04:45:58.535Z,99051.52
2023-10-26T04:48:45.657Z,99048.26
2023-10-26T04:51:33.601Z,99050.80
2023-10-26T04:54:20.490Z,99046.41
2023-10-26T04:57:07.043Z,99052.09
2023-10-26T04:59:53.968Z,99046.96
2023-10-26T05:02:42.123Z,99046.98
2023-10-26T05:05:28.868Z,99043.48
2023-10-26T05:08:15.298Z,99043.82
2023-10-26T05:11:01.993Z,99037.23
2023-10-26T05:13:50.143Z,99039.58
2023-10-26T05:16:38.079Z,99044.54
2023-10-26T05:19:24.750Z,99041.61
2023-10-26T05:22:11.293Z,99037.78
2023-10-26T05:24:57.543Z,99034.56
2023-10-26T05:27:44.692Z,99036.86
2023-10-26T05:30:31.487Z,99034.04
2023-10-26T05:33:17.837Z,99031.33
2023-10-26T05:36:05.407Z,99033.82
2023-10-26T05:38:51.655Z,99035.73
2023-10-26T05:41:38.251Z,99030.82
2023-10-26T05:44:24.871Z,99024.27
2023-10-26T05:47:11.627Z,99024.02
2023-10-26T05:49:58.034Z,99025.48
2023-10-26T05:52:44.568Z,99026.73
2023-10-26T05:55:31.249Z,99019.02
2023-10-26T05:58:17.879Z,99016.06
2023-10-26T06:01:05.751Z,99018.23
2023-10-26T06:03:52.214Z,99021.42
2023-10-26T06:06:38.985Z,99026.40
2023-10-26T06:09:25.762Z,99018.41
2023-10-26T06:12:13.494Z,99031.27
2023-10-26T06:15:00.101Z,99023.02
2023-10-26T06:17:46.915Z,99018.00
2023-10-26T06:20:33.440Z,99024.87
2023-10-26T06:23:19.816Z,99022.13
2023-10-26T06:26:06.920Z,99018.30
2023-10-26T06:28:54.460Z,99016.77
2023-10-26T06:31:41.135Z,99013.73
2023-10-26T06:34:27.913Z,99007.66
2023-10-26T06:37:14.449Z,99008.95
2023-10-26T06:40:00.882Z,99008.33
2023-10-26T06:42:47.416Z,99008.26
2023-10-26T06:45:34.651Z,99009.57
2023-10-26T06:48:21.233Z,99004.33
2023-10-26T06:51:08.113Z,99001.75
2023-10-26T06:53:54.939Z,98992.92
2023-10-26T06:56:41.631Z,98996.58
2023-10-26T06:59:28.381Z,98998.00
2023-10-26T07:02:14.975Z,98997.07
2023-10-26T07:05:03.563Z,98997.45
2023-10-26T07:07:50.188Z,98994.73
2023-10-26T07:10:39.984Z,98994.93
2023-10-26T07:13:29.295Z,98996.48
2023-10-26T07:16:16.142Z,98998.12
2023-10-26T07:19:02.620Z,99000.84
2023-10-26T07:21:49.094Z,98994.64
2023-10-26T07:24:36.435Z,99001.08
2023-10-26T07:27:22.977Z,99009.52
2023-10-26T07:30:10.639Z,99008.50
2023-10-26T07:32:57.094Z,99006.04
2023-10-26T07:35:51.776Z,99003.31
2023-10-26T07:38:38.283Z,99001.35
2023-10-26T07:42:07.053Z,99002.11
2023-10-26T07:44:35.001Z,98995.31
2023-10-26T07:47:22.913Z,98990.56
2023-10-26T07:50:09.724Z,98992.35
2023-10-26T07:52:56.192Z,98990.92
2023-10-26T07:55:42.904Z,98996.06
2023-10-26T07:58:31.183Z,98996.41
2023-10-26T08:01:18.005Z,98984.84
2023-10-26T08:04:04.898Z,98996.02
2023-10-26T08:06:51.713Z,98993.55
2023-10-26T08:09:38.371Z,98994.09
2023-10-26T08:12:25.004Z,98993.77
2023-10-26T08:16:10.602Z,98991.70
2023-10-26T08:18:18.231Z,98992.67
2023-10-26T08:21:06.639Z,98993.44
2023-10-26T08:23:53.116Z,98992.05
2023-10-26T08:26:39.730Z,98994.01
2023-10-26T08:29:28.992Z,98989.47
2023-10-26T08:32:16.513Z,98990.87
2023-10-26T08:35:04.569Z,98989.06
2023-10-26T08:37:51.357Z,98982.05
2023-10-26T08:40:38.582Z,98980.08
2023-10-26T08:43:25.466Z,98984.77
2023-10-26T08:46:17.727Z,98982.43
2023-10-26T08:49:07.842Z,98982.80
2023-10-26T08:51:55.068Z,98984.11
2023-10-26T08:54:41.665Z,98983.09
2023-10-26T08:57:28.493Z,98983.80
2023-10-26T09:00:16.562Z,98976.13
2023-10-26T09:03:04.334Z,98979.61
2023-10-26T09:05:55.644Z,98980.28
2023-10-26T09:08:42.801Z,98971.48
2023-10-26T09:11:29.520Z,98971.67
2023-10-26T09:14:20.300Z,98971.11
2023-10-26T09:17:06.871Z,98969.64
2023-10-26T09:19:53.493Z,98968.77
2023-10-26T09:22:41.624Z,98969.46
2023-10-26T09:25:29.570Z,98969.63
2023-10-26T09:28:16.582Z,98970.50
2023-10-26T09:31:06.022Z,98968.38
2023-10-26T09:33:52.813Z,98963.06
2023-10-26T09:36:39.567Z,98966.59
2023-10-26T09:39:30.909Z,98964.91
2023-10-26T09:42:17.724Z,98966.04
2023-10-26T09:45:04.746Z,98957.41
2023-10-26T09:47:51.240Z,98959.48
2023-10-26T09:50:41.584Z,98952.92
2023-10-26T09:53:33.661Z,98952.27
2023-10-26T09:56:26.196Z,98949.62
2023-10-26T09:59:14.008Z,98948.89
2023-10-26T10:02:14.126Z,98946.11
2023-10-26T10:05:01.199Z,98946.79
2023-10-26T10:07:47.763Z,98945.73
2023-10-26T10:10:35.522Z,98941.33
2023-10-26T10:13:38.329Z,98938.86
2023-10-26T10:16:37.238Z,98937.49
2023-10-26T10:19:27.375Z,98932.02
2023-10-26T10:22:37.997Z,98931.31
2023-10-26T10:25:50.137Z,98926.85
2023-10-26T10:28:42.063Z,98924.35
2023-10-26T10:31:39.078Z,98921.92
2023-10-26T10:34:34.939Z,98919.65
2023-10-26T10:37:25.087Z,98921.09
2023-10-26T10:40:16.154Z,98922.18
2023-10-26T10:43:02.456Z,98915.81
2023-10-26T10:45:49.433Z,98915.11
2023-10-26T10:48:37.209Z,98916.20
2023-10-26T10:51:30.712Z,98917.48
2023-10-26T10:54:34.875Z,98916.15
2023-10-26T10:57:30.917Z,98912.84
2023-10-26T11:00:17.454Z,98913.73
2023-10-26T11:03:04.380Z,98913.90
2023-10-26T11:05:53.197Z,98907.32
2023-10-26T11:08:39.950Z,98912.55
2023-10-26T11:11:27.850Z,98909.55
2023-10-26T11:14:14.240Z,98909.74
2023-10-26T11:17:01.404Z,98908.15
2023-10-26T11:19:48.875Z,98912.01
2023-10-26T11:22:35.604Z,98906.58
2023-10-26T11:25:28.531Z,98909.80
2023-10-26T11:28:15.143Z,98905.63
2023-10-26T11:31:02.107Z,98908.14
2023-10-26T11:33:48.906Z,98904.46
2023-10-26T11:36:39.023Z,98905.09
2023-10-26T11:39:26.268Z,98893.98
2023-10-26T11:42:13.065Z,98898.61
2023-10-26T11:44:59.810Z,98903.95
2023-10-26T11:47:55.522Z,98902.70
2023-10-26T11:50:42.143Z,98900.59
2023-10-26T11:53:30.307Z,98901.53
2023-10-26T11:56:16.922Z,98902.48
2023-10-26T11:59:03.184Z,98899.01
2023-10-26T12:01:49.762Z,98896.77
2023-10-26T12:04:36.342Z,98898.39
2023-10-26T12:07:23.114Z,98895.45
2023-10-26T12:10:10.370Z,98888.79
2023-10-26T12:13:00.223Z,98887.13
2023-10-26T12:15:46.588Z,98886.87
2023-10-26T12:18:36.332Z,98892.56
2023-10-26T12:21:22.901Z,98889.89
2023-10-26T12:24:09.723Z,98888.08
2023-10-26T12:26:57.317Z,98885.52
2023-10-26T12:29:44.773Z,98882.83
2023-10-26T12:32:32.214Z,98884.43
2023-10-26T12:35:18.688Z,98884.60
2023-10-26T12:38:05.097Z,98885.44
2023-10-26T12:40:51.556Z,98891.95
2023-10-26T12:43:38.035Z,98888.71
2023-10-26T12:46:24.502Z,98895.00
2023-10-26T12:49:11.091Z,98893.67
2023-10-26T12:51:57.703Z,98892.92
2023-10-26T12:54:44.487Z,98891.99
2023-10-26T12:57:31.577Z,98890.70
2023-10-26T13:00:18.174Z,98892.06
2023-10-26T13:03:04.922Z,98892.23
2023-10-26T13:05:52.959Z,98892.95
2023-10-26T13:08:40.444Z,98893.13
2023-10-26T13:11:27.073Z,98895.73
2023-10-26T13:14:13.771Z,98894.64
2023-10-26T13:17:00.274Z,98893.71
2023-10-26T13:19:47.143Z,98893.52
2023-10-26T13:22:33.865Z,98883.70
2023-10-26T13:25:20.467Z,98893.81
2023-10-26T13:28:06.950Z,98898.34
2023-10-26T13:30:54.225Z,98898.24
2023-10-26T13:33:41.898Z,98893.60
2023-10-26T13:36:28.313Z,98892.64
2023-10-26T13:39:16.042Z,98893.30
2023-10-26T13:42:02.681Z,98894.14
2023-10-26T13:44:49.891Z,98900.27
2023-10-26T13:47:36.962Z,98903.41
2023-10-26T13:50:23.744Z,98900.89
2023-10-26T13:53:10.213Z,98900.24
2023-10-26T13:55:56.816Z,98899.98
2023-10-26T13:58:43.409Z,98901.83
2023-10-26T14:01:30.180Z,98903.84
2023-10-26T14:04:17.103Z,98904.59
2023-10-26T14:07:05.413Z,98905.20
2023-10-26T14:09:53.407Z,98902.95
2023-10-26T14:12:39.674Z,98907.05
2023-10-26T14:15:26.602Z,98904.21
2023-10-26T14:18:13.232Z,98911.80
2023-10-26T14:20:59.807Z,98911.70
2023-10-26T14:23:46.542Z,98915.71
2023-10-26T14:26:33.042Z,98917.95
2023-10-26T14:29:19.280Z,98918.42
2023-10-26T14:32:05.944Z,98922.76
2023-10-26T14:34:52.551Z,98914.05
2023-10-26T14:37:39.219Z,98916.10
2023-10-26T14:40:26.743Z,98918.27
2023-10-26T14:43:16.659Z,98916.08
2023-10-26T14:46:03.272Z,98916.80
2023-10-26T14:48:50.039Z,98915.36
2023-10-26T14:51:36.979Z,98917.48
2023-10-26T14:54:25.338Z,98914.11
2023-10-26T14:57:11.906Z,98916.73
2023-10-26T14:59:58.382Z,98918.86
2023-10-26T15:02:45.577Z,98921.46
2023-10-26T15:05:35.699Z,98920.53
2023-10-26T15:08:22.552Z,98923.88
2023-10-26T15:11:22.995Z,98924.33
2023-10-26T15:14:11.852Z,98916.23
2023-10-26T15:16:58.125Z,98923.31
2023-10-26T15:19:44.710Z,98922.79
2023-10-26T15:22:31.618Z,98925.50
2023-10-26T15:25:18.239Z,98925.12
2023-10-26T15:28:05.203Z,98927.34
2023-10-26T15:30:52.218Z,98929.60
2023-10-26T15:33:39.248Z,98929.39
2023-10-26T15:36:26.450Z,98933.94
2023-10-26T15:39:14.697Z,98931.80
2023-10-26T15:42:00.995Z,98936.23
2023-10-26T15:44:53.095Z,98939.02
2023-10-26T15:47:40.692Z,98940.40
2023-10-26T15:50:29.759Z,98937.94
2023-10-26T15:53:16.278Z,98944.30
2023-10-26T15:56:04.056Z,98936.86
2023-10-26T15:58:53.582Z,98950.55
2023-10-26T16:01:40.171Z,98951.23
2023-10-26T16:04:29.534Z,98947.99
2023-10-26T16:07:15.997Z,98949.22
2023-10-26T16:10:45.040Z,98943.33
2023-10-26T16:13:57.172Z,98947.56
2023-10-26T16:16:43.576Z,98953.03
2023-10-26T16:19:30.584Z,98954.61
2023-10-26T16:22:18.289Z,98957.46
2023-10-26T16:25:05.677Z,98955.23
2023-10-26T16:27:52.409Z,98955.27
2023-10-26T16:30:41.040Z,98954.40
2023-10-26T16:33:28.425Z,98955.44
2023-10-26T16:36:14.762Z,98938.53
2023-10-26T16:39:00.926Z,98946.56
2023-10-26T16:41:47.748Z,98952.81
2023-10-26T16:44:34.396Z,98952.77
2023-10-26T16:47:21.547Z,98950.58
2023-10-26T16:50:08.537Z,98948.98
2023-10-26T16:52:55.115Z,98945.27
2023-10-26T16:55:41.432Z,98949.10
2023-10-26T16:58:28.732Z,98949.80
2023-10-26T17:01:15.590Z,98950.35
2023-10-26T17:04:02.200Z,98943.26
2023-10-26T17:06:49.135Z,98946.66
2023-10-26T17:09:35.785Z,98941.90
2023-10-26T17:12:22.501Z,98946.84
2023-10-26T17:15:10.946Z,98947.56
2023-10-26T17:17:57.331Z,98947.38
2023-10-26T17:20:43.939Z,98945.77
2023-10-26T17:23:30.488Z,98943.85
2023-10-26T17:26:17.234Z,98942.27
2023-10-26T17:29:04.068Z,98943.86
2023-10-26T17:31:50.823Z,98951.61
2023-10-26T17:34:37.359Z,98945.98
2023-10-26T17:37:24.307Z,98942.10
2023-10-26T17:40:12.967Z,98939.23
2023-10-26T17:42:59.630Z,98938.52
2023-10-26T17:45:55.918Z,98942.06
2023-10-26T17:48:42.472Z,98937.30
2023-10-26T17:51:30.571Z,98935.23
2023-10-26T17:54:17.022Z,98935.03
2023-10-26T17:57:04.360Z,98930.85
2023-10-26T17:59:50.922Z,98939.56
2023-10-26T18:02:38.222Z,98927.48
2023-10-26T18:05:24.927Z,98935.19
2023-10-26T18:08:11.719Z,98937.52
2023-10-26T18:10:59.551Z,98936.99
2023-10-26T18:13:46.037Z,98934.85
2023-10-26T18:16:32.884Z,98936.73
2023-10-26T18:19:19.256Z,98937.38
2023-10-26T18:22:05.851Z,98940.65
2023-10-26T18:24:55.728Z,98941.14
2023-10-26T18:27:42.499Z,98942.71
2023-10-26T18:30:29.178Z,98940.23
2023-10-26T18:33:15.584Z,98945.52
2023-10-26T18:36:04.489Z,98944.29
2023-10-26T18:38:51.211Z,98950.80
2023-10-26T18:41:38.327Z,98949.21
2023-10-26T18:44:25.842Z,98946.89
2023-10-26T18:47:12.800Z,98952.23
2023-10-26T18:49:59.829Z,98946.77
2023-10-26T18:52:47.050Z,98948.71
2023-10-26T18:55:36.668Z,98954.34
2023-10-26T18:58:24.720Z,98956.47
2023-10-26T19:01:11.954Z,98959.28
2023-10-26T19:04:02.620Z,98965.02
2023-10-26T19:06:52.167Z,98965.11
2023-10-26T19:09:39.026Z,98969.46
2023-10-26T19:12:25.899Z,98963.05
2023-10-26T19:15:12.813Z,98967.20
2023-10-26T19:18:00.364Z,98970.15
2023-10-26T19:20:46.873Z,98969.59
2023-10-26T19:23:33.511Z,98969.52
2023-10-26T19:26:20.533Z,98966.61
2023-10-26T19:29:07.103Z,98963.58
2023-10-26T19:31:53.988Z,98964.45
2023-10-26T19:34:40.805Z,98964.81
2023-10-26T19:37:27.764Z,98965.89
2023-10-26T19:40:14.630Z,98967.84
2023-10-26T19:43:01.444Z,98968.67
2023-10-26T19:45:48.264Z,98970.99
2023-10-26T19:48:34.848Z,98972.33
2023-10-26T19:51:21.457Z,98974.89
2023-10-26T19:54:08.131Z,98978.70
2023-10-26T19:56:55.647Z,98980.02
2023-10-26T19:59:46.862Z,98976.95
2023-10-26T20:02:33.390Z,98977.42
2023-10-26T20:05:20.098Z,98976.73
2023-10-26T20:08:06.788Z,98976.98
2023-10-26T20:11:03.241Z,98975.05
2023-10-26T20:13:55.519Z,98978.43
2023-10-26T20:16:41.907Z,98981.17
2023-10-26T20:19:28.960Z,98979.16
2023-10-26T20:22:16.292Z,98976.41
2023-10-26T20:25:05.345Z,98977.30
2023-10-26T20:27:52.123Z,98972.73
2023-10-26T20:30:38.890Z,98969.38
2023-10-26T20:33:25.431Z,98967.55
2023-10-26T20:36:12.339Z,98969.08
2023-10-26T20:38:59.269Z,98960.37
2023-10-26T20:41:45.867Z,98962.44
2023-10-26T20:44:32.117Z,98957.93
2023-10-26T20:47:18.436Z,98959.45
2023-10-26T20:50:06.372Z,98947.45
2023-10-26T20:52:52.773Z,98961.41
2023-10-26T20:55:39.771Z,98964.10
2023-10-26T20:58:26.929Z,98959.68
2023-10-26T21:01:14.773Z,98958.61
2023-10-26T21:04:01.291Z,98954.06
2023-10-26T21:06:48.087Z,98960.11
2023-10-26T21:09:34.434Z,98960.25
2023-10-26T21:12:23.163Z,98951.34
2023-10-26T21:15:10.357Z,98956.19
2023-10-26T21:17:57.095Z,98953.97
2023-10-26T21:20:44.208Z,98957.42
2023-10-26T21:23:30.916Z,98960.37
2023-10-26T21:26:17.407Z,98961.14
2023-10-26T21:29:03.704Z,98963.27
2023-10-26T21:31:50.574Z,98959.62
2023-10-26T21:34:37.132Z,98959.42
2023-10-26T21:37:23.473Z,98960.94
2023-10-26T21:40:12.589Z,98964.55
2023-10-26T21:43:00.164Z,98963.97
2023-10-26T21:45:46.628Z,98968.23
2023-10-26T21:48:34.235Z,98964.13
2023-10-26T21:51:20.610Z,98969.58
2023-10-26T21:54:07.071Z,98965.31
2023-10-26T21:56:53.777Z,98959.48
2023-10-26T21:59:40.418Z,98965.23
2023-10-26T22:02:26.910Z,98966.98
2023-10-26T22:05:15.016Z,98971.21
2023-10-26T22:08:01.845Z,98971.92
2023-10-26T22:10:49.142Z,98975.34
2023-10-26T22:13:35.895Z,98979.64
2023-10-26T22:16:22.605Z,98978.20
2023-10-26T22:19:09.598Z,98980.72
2023-10-26T22:21:56.180Z,98983.52
2023-10-26T22:24:42.921Z,98985.81
2023-10-26T22:27:30.609Z,98985.59
2023-10-26T22:30:17.180Z,98985.52
2023-10-26T22:33:03.962Z,98988.19
2023-10-26T22:35:50.493Z,98982.54
2023-10-26T22:38:37.495Z,98986.38
2023-10-26T22:41:23.831Z,98988.42
2023-10-26T22:44:11.257Z,98987.73
2023-10-26T22:46:57.657Z,98990.63
2023-10-26T22:49:44.531Z,98990.64
2023-10-26T22:52:31.339Z,98990.25
2023-10-26T22:55:17.830Z,98979.98
2023-10-26T22:58:04.541Z,98989.77
2023-10-26T23:00:51.273Z,98989.61
2023-10-26T23:03:37.730Z,98987.16
2023-10-26T23:06:24.431Z,98990.47
2023-10-26T23:09:14.669Z,98989.47
2023-10-26T23:12:01.679Z,98989.31
2023-10-26T23:14:47.872Z,98991.66
2023-10-26T23:17:34.485Z,98992.16
2023-10-26T23:20:21.063Z,98993.17
2023-10-26T23:23:07.229Z,98995.19
2023-10-26T23:25:54.251Z,98989.51
2023-10-26T23:28:41.232Z,98986.64
2023-10-26T23:31:27.756Z,98985.20
2023-10-26T23:34:14.506Z,98986.60
2023-10-26T23:37:01.446Z,98990.82
2023-10-26T23:39:48.572Z,98995.05
2023-10-26T23:42:35.088Z,98993.98
2023-10-26T23:45:22.055Z,98993.05
2023-10-26T23:48:08.532Z,98991.45
2023-10-26T23:50:55.429Z,98989.81
2023-10-26T23:53:42.452Z,98982.38
2023-10-26T23:56:28.957Z,98986.00
2023-10-26T23:59:16.220Z,98985.13
